createdAt,value
2019-03-24T00:00:00.769Z,6.70
2019-03-24T00:02:29.269Z,6.80
2019-03-24T00:04:57.721Z,6.80
2019-03-24T00:07:26.173Z,6.80
2019-03-24T00:09:54.656Z,6.80
2019-03-24T00:12:23.139Z,6.80
2019-03-24T00:14:51.616Z,6.70
2019-03-24T00:17:20.153Z,6.80
2019-03-24T00:19:48.607Z,6.70
2019-03-24T00:22:17.094Z,6.70
2019-03-24T00:24:45.551Z,6.80
2019-03-24T00:27:14.097Z,6.80
2019-03-24T00:29:42.600Z,6.80
2019-03-24T00:32:11.054Z,6.80
2019-03-24T00:34:39.537Z,6.80
2019-03-24T00:37:08.027Z,6.80
2019-03-24T00:39:36.557Z,6.70
2019-03-24T00:42:05.098Z,6.70
2019-03-24T00:44:33.622Z,6.70
2019-03-24T00:47:02.053Z,6.70
2019-03-24T00:49:30.501Z,6.80
2019-03-24T00:51:58.967Z,6.80
2019-03-24T00:54:27.458Z,6.80
2019-03-24T00:56:55.886Z,6.80
2019-03-24T00:59:24.386Z,6.80
2019-03-24T01:01:52.937Z,6.80
2019-03-24T01:04:21.367Z,6.70
2019-03-24T01:06:50.238Z,6.70
2019-03-24T01:09:18.726Z,6.70
2019-03-24T01:11:47.175Z,6.80
2019-03-24T01:14:15.639Z,6.80
2019-03-24T01:16:44.101Z,6.70
2019-03-24T01:19:12.537Z,6.70
2019-03-24T01:21:41.061Z,6.70
2019-03-24T01:24:09.532Z,6.70
2019-03-24T01:26:38.058Z,6.70
2019-03-24T01:29:06.501Z,6.80
2019-03-24T01:31:34.954Z,6.70
2019-03-24T01:34:03.416Z,6.80
2019-03-24T01:36:31.846Z,6.70
2019-03-24T01:39:00.295Z,6.70
2019-03-24T01:41:28.756Z,6.60
2019-03-24T01:43:57.319Z,6.60
2019-03-24T01:46:25.747Z,6.60
2019-03-24T01:48:54.209Z,6.60
2019-03-24T01:51:22.794Z,6.70
2019-03-24T01:53:51.250Z,6.60
2019-03-24T01:56:19.714Z,6.70
2019-03-24T01:58:48.199Z,6.60
2019-03-24T02:01:16.663Z,6.60
2019-03-24T02:03:45.137Z,6.70
2019-03-24T02:06:13.661Z,6.70
2019-03-24T02:08:42.113Z,6.70
2019-03-24T02:11:10.612Z,6.70
2019-03-24T02:13:39.197Z,6.60
2019-03-24T02:16:09.577Z,6.60
2019-03-24T02:18:37.853Z,6.70
2019-03-24T02:21:06.320Z,6.70
2019-03-24T02:23:34.894Z,6.60
2019-03-24T02:26:03.446Z,6.60
2019-03-24T02:28:32.041Z,6.60
2019-03-24T02:31:00.505Z,6.60
2019-03-24T02:33:29.117Z,6.70
2019-03-24T02:35:57.679Z,6.60
2019-03-24T02:38:26.106Z,6.60
2019-03-24T02:40:54.706Z,6.60
2019-03-24T02:43:23.186Z,6.60
2019-03-24T02:45:51.723Z,6.60
2019-03-24T02:48:20.180Z,6.50
2019-03-24T02:50:48.601Z,6.60
2019-03-24T02:53:17.057Z,6.60
2019-03-24T02:55:45.615Z,6.60
2019-03-24T02:58:14.086Z,6.70
2019-03-24T03:00:42.519Z,6.70
2019-03-24T03:03:11.052Z,6.70
2019-03-24T03:05:39.617Z,6.70
2019-03-24T03:08:08.152Z,6.70
2019-03-24T03:10:36.666Z,6.70
2019-03-24T03:13:05.198Z,6.80
2019-03-24T03:15:33.686Z,6.80
2019-03-24T03:18:02.686Z,6.80
2019-03-24T03:20:31.162Z,6.80
2019-03-24T03:22:59.694Z,6.80
2019-03-24T03:25:28.181Z,6.70
2019-03-24T03:28:15.973Z,6.80
2019-03-24T03:30:44.451Z,6.80
2019-03-24T03:33:12.979Z,6.70
2019-03-24T03:35:41.412Z,6.70
2019-03-24T03:38:09.906Z,6.60
2019-03-24T03:40:38.488Z,6.70
2019-03-24T03:43:07.039Z,6.60
2019-03-24T03:45:35.505Z,6.70
2019-03-24T03:48:03.999Z,6.60
2019-03-24T03:50:32.491Z,6.60
2019-03-24T03:53:02.192Z,6.60
2019-03-24T03:55:30.652Z,6.50
2019-03-24T03:57:59.190Z,6.50
2019-03-24T04:00:35.577Z,6.50
2019-03-24T04:03:05.562Z,6.50
2019-03-24T04:05:34.105Z,6.50
2019-03-24T04:08:02.848Z,6.50
2019-03-24T04:10:31.347Z,6.40
2019-03-24T04:12:59.782Z,6.50
2019-03-24T04:15:28.273Z,6.50
2019-03-24T04:18:16.035Z,6.50
2019-03-24T04:20:44.514Z,6.50
2019-03-24T04:23:13.053Z,6.40
2019-03-24T04:25:41.502Z,6.40
2019-03-24T04:28:09.954Z,6.40
2019-03-24T04:30:38.489Z,6.60
2019-03-24T04:33:06.971Z,6.60
2019-03-24T04:35:35.447Z,6.60
2019-03-24T04:38:03.967Z,6.60
2019-03-24T04:40:32.418Z,6.60
2019-03-24T04:43:04.481Z,6.50
2019-03-24T04:45:32.934Z,6.50
2019-03-24T04:48:01.361Z,6.50
2019-03-24T04:50:29.863Z,6.60
2019-03-24T04:52:58.289Z,6.60
2019-03-24T04:55:26.752Z,6.60
2019-03-24T04:57:55.199Z,6.60
2019-03-24T05:00:35.098Z,6.60
2019-03-24T05:03:03.755Z,6.60
2019-03-24T05:05:32.365Z,6.60
2019-03-24T05:08:02.032Z,6.60
2019-03-24T05:10:30.533Z,6.60
2019-03-24T05:12:59.055Z,6.70
2019-03-24T05:15:27.543Z,6.60
2019-03-24T05:17:55.999Z,6.70
2019-03-24T05:20:24.485Z,6.60
2019-03-24T05:22:52.946Z,6.60
2019-03-24T05:25:21.458Z,6.60
2019-03-24T05:27:50.018Z,6.60
2019-03-24T05:30:18.469Z,6.60
2019-03-24T05:32:46.922Z,6.60
2019-03-24T05:35:15.387Z,6.60
2019-03-24T05:37:43.855Z,6.60
2019-03-24T05:40:12.390Z,6.60
2019-03-24T05:42:40.843Z,6.60
2019-03-24T05:45:09.739Z,6.60
2019-03-24T05:47:38.261Z,6.60
2019-03-24T05:50:09.600Z,6.60
2019-03-24T05:52:38.062Z,6.60
2019-03-24T05:55:06.870Z,6.60
2019-03-24T05:57:35.306Z,6.60
2019-03-24T06:00:06.564Z,6.60
2019-03-24T06:02:35.020Z,6.60
2019-03-24T06:05:03.550Z,6.60
2019-03-24T06:07:32.022Z,6.60
2019-03-24T06:10:00.478Z,6.70
2019-03-24T06:12:28.925Z,6.80
2019-03-24T06:14:57.396Z,6.80
2019-03-24T06:17:25.853Z,6.90
2019-03-24T06:19:54.347Z,6.80
2019-03-24T06:22:22.839Z,6.90
2019-03-24T06:24:51.332Z,7.00
2019-03-24T06:27:19.791Z,7.00
2019-03-24T06:29:48.238Z,7.00
2019-03-24T06:32:16.717Z,7.00
2019-03-24T06:34:45.204Z,7.00
2019-03-24T06:37:13.656Z,7.10
2019-03-24T06:39:42.143Z,7.10
2019-03-24T06:42:10.570Z,7.10
2019-03-24T06:44:39.061Z,7.20
2019-03-24T06:47:07.509Z,7.30
2019-03-24T06:49:35.950Z,7.30
2019-03-24T06:52:04.406Z,7.30
2019-03-24T06:54:32.860Z,7.40
2019-03-24T06:57:01.319Z,7.40
2019-03-24T06:59:29.789Z,7.40
2019-03-24T07:01:58.242Z,7.40
2019-03-24T07:04:26.712Z,7.40
2019-03-24T07:06:55.180Z,7.40
2019-03-24T07:09:23.643Z,7.40
2019-03-24T07:11:52.101Z,7.50
2019-03-24T07:14:20.565Z,7.40
2019-03-24T07:16:49.043Z,7.50
2019-03-24T07:19:17.518Z,7.40
2019-03-24T07:21:45.965Z,7.60
2019-03-24T07:24:14.440Z,7.60
2019-03-24T07:26:42.893Z,7.70
2019-03-24T07:29:11.375Z,7.60
2019-03-24T07:31:39.797Z,7.60
2019-03-24T07:34:08.287Z,7.60
2019-03-24T07:36:36.774Z,7.60
2019-03-24T07:39:06.796Z,7.60
2019-03-24T07:41:35.269Z,7.60
2019-03-24T07:44:04.970Z,7.60
2019-03-24T07:46:33.466Z,7.60
2019-03-24T07:49:02.229Z,7.60
2019-03-24T07:51:30.657Z,7.60
2019-03-24T07:53:59.106Z,7.70
2019-03-24T07:56:27.568Z,7.70
2019-03-24T07:58:56.178Z,7.80
2019-03-24T08:01:24.602Z,7.90
2019-03-24T08:03:53.049Z,8.00
2019-03-24T08:06:21.510Z,7.90
2019-03-24T08:08:49.938Z,7.90
2019-03-24T08:11:18.402Z,7.90
2019-03-24T08:13:53.633Z,7.90
2019-03-24T08:16:17.074Z,7.90
2019-03-24T08:18:45.626Z,8.00
2019-03-24T08:21:14.106Z,8.00
2019-03-24T08:23:42.568Z,8.00
2019-03-24T08:26:11.081Z,8.00
2019-03-24T08:28:39.514Z,8.00
2019-03-24T08:31:07.994Z,8.00
2019-03-24T08:33:36.509Z,7.90
2019-03-24T08:36:04.986Z,8.00
2019-03-24T08:38:33.442Z,8.00
2019-03-24T08:41:01.906Z,8.10
2019-03-24T08:43:30.362Z,8.10
2019-03-24T08:45:58.847Z,8.20
2019-03-24T08:48:27.269Z,8.10
2019-03-24T08:50:55.760Z,8.10
2019-03-24T08:53:24.293Z,8.20
2019-03-24T08:55:52.746Z,8.20
2019-03-24T08:58:21.213Z,8.20
2019-03-24T09:00:49.654Z,8.20
2019-03-24T09:03:18.286Z,8.30
2019-03-24T09:05:46.756Z,8.30
2019-03-24T09:08:15.258Z,8.30
2019-03-24T09:10:43.747Z,8.20
2019-03-24T09:13:12.175Z,8.30
2019-03-24T09:15:43.073Z,8.30
2019-03-24T09:18:10.813Z,8.30
2019-03-24T09:20:41.874Z,8.30
2019-03-24T09:23:10.627Z,8.30
2019-03-24T09:25:39.327Z,8.40
2019-03-24T09:28:09.235Z,8.50
2019-03-24T09:30:39.481Z,8.50
2019-03-24T09:33:08.006Z,8.60
2019-03-24T09:35:36.507Z,8.60
2019-03-24T09:38:05.777Z,8.60
2019-03-24T09:40:35.883Z,8.60
2019-03-24T09:43:05.683Z,8.70
2019-03-24T09:45:34.941Z,8.80
2019-03-24T09:48:03.527Z,9.10
2019-03-24T09:50:32.170Z,9.40
2019-03-24T09:53:01.653Z,9.60
2019-03-24T09:55:30.167Z,9.80
2019-03-24T09:57:58.620Z,9.90
2019-03-24T10:00:27.053Z,10.10
2019-03-24T10:02:55.761Z,10.20
2019-03-24T10:05:24.212Z,10.10
2019-03-24T10:07:52.697Z,10.20
2019-03-24T10:10:21.131Z,10.30
2019-03-24T10:12:49.606Z,10.20
2019-03-24T10:15:18.069Z,9.80
2019-03-24T10:17:46.548Z,9.50
2019-03-24T10:20:15.177Z,9.40
2019-03-24T10:22:43.632Z,9.30
2019-03-24T10:25:12.132Z,9.40
2019-03-24T10:27:40.619Z,9.50
2019-03-24T10:30:09.831Z,9.60
2019-03-24T10:32:38.282Z,9.60
2019-03-24T10:35:07.417Z,9.40
2019-03-24T10:37:35.975Z,9.10
2019-03-24T10:40:07.137Z,9.00
2019-03-24T10:42:35.573Z,8.80
2019-03-24T10:45:05.658Z,8.80
2019-03-24T10:47:34.167Z,8.80
2019-03-24T10:50:03.425Z,8.90
2019-03-24T10:52:31.979Z,8.90
2019-03-24T10:55:00.495Z,8.80
2019-03-24T10:57:29.011Z,8.80
2019-03-24T10:59:57.446Z,8.80
2019-03-24T11:02:25.931Z,8.80
2019-03-24T11:04:54.391Z,8.80
2019-03-24T11:07:22.879Z,8.70
2019-03-24T11:09:51.328Z,8.80
2019-03-24T11:12:19.819Z,8.90
2019-03-24T11:14:48.272Z,8.90
2019-03-24T11:17:16.722Z,9.00
2019-03-24T11:19:45.201Z,9.20
2019-03-24T11:22:13.706Z,9.30
2019-03-24T11:24:42.218Z,9.20
2019-03-24T11:27:10.649Z,9.10
2019-03-24T11:29:39.101Z,9.10
2019-03-24T11:32:07.629Z,9.10
2019-03-24T11:34:36.059Z,8.90
2019-03-24T11:37:04.578Z,8.90
2019-03-24T11:39:33.066Z,8.90
2019-03-24T11:42:01.521Z,9.00
2019-03-24T11:44:29.953Z,9.10
2019-03-24T11:46:58.419Z,9.10
2019-03-24T11:49:26.897Z,9.00
2019-03-24T11:51:55.401Z,9.00
2019-03-24T11:54:23.919Z,9.00
2019-03-24T11:56:52.419Z,9.10
2019-03-24T11:59:20.915Z,9.10
2019-03-24T12:01:49.347Z,9.00
2019-03-24T12:04:17.819Z,9.10
2019-03-24T12:06:46.269Z,9.10
2019-03-24T12:09:14.732Z,9.00
2019-03-24T12:11:43.206Z,8.90
2019-03-24T12:14:11.751Z,9.00
2019-03-24T12:16:40.181Z,8.80
2019-03-24T12:19:08.637Z,8.90
2019-03-24T12:21:37.090Z,9.00
2019-03-24T12:24:05.608Z,9.10
2019-03-24T12:26:34.083Z,9.00
2019-03-24T12:29:02.596Z,9.10
2019-03-24T12:31:31.099Z,9.00
2019-03-24T12:33:59.573Z,9.10
2019-03-24T12:36:28.197Z,9.10
2019-03-24T12:38:56.699Z,9.00
2019-03-24T12:41:25.389Z,9.00
2019-03-24T12:43:53.827Z,8.90
2019-03-24T12:46:22.280Z,9.10
2019-03-24T12:48:50.766Z,9.10
2019-03-24T12:51:19.244Z,9.20
2019-03-24T12:53:47.800Z,9.10
2019-03-24T12:56:16.296Z,9.10
2019-03-24T12:58:44.747Z,9.10
2019-03-24T13:01:13.280Z,9.20
2019-03-24T13:03:41.767Z,9.20
2019-03-24T13:06:10.219Z,9.10
2019-03-24T13:08:38.678Z,9.00
2019-03-24T13:11:07.130Z,8.90
2019-03-24T13:13:35.589Z,8.90
2019-03-24T13:16:04.072Z,8.90
2019-03-24T13:18:32.522Z,9.00
2019-03-24T13:21:03.325Z,8.90
2019-03-24T13:23:31.781Z,8.90
2019-03-24T13:26:02.725Z,8.90
2019-03-24T13:28:31.157Z,8.70
2019-03-24T13:31:00.801Z,8.50
2019-03-24T13:33:29.241Z,8.50
2019-03-24T13:36:05.204Z,8.50
2019-03-24T13:38:33.681Z,8.50
2019-03-24T13:41:02.187Z,8.50
2019-03-24T13:43:30.679Z,8.40
2019-03-24T13:45:59.219Z,8.40
2019-03-24T13:48:27.698Z,8.50
2019-03-24T13:50:56.137Z,8.50
2019-03-24T13:53:24.602Z,8.40
2019-03-24T13:55:53.087Z,8.40
2019-03-24T13:58:21.582Z,8.40
2019-03-24T14:00:50.031Z,8.50
2019-03-24T14:03:18.528Z,8.60
2019-03-24T14:05:47.182Z,8.50
2019-03-24T14:08:15.697Z,8.50
2019-03-24T14:10:44.181Z,8.40
2019-03-24T14:13:12.662Z,8.40
2019-03-24T14:15:41.146Z,8.50
2019-03-24T14:18:09.574Z,8.50
2019-03-24T14:20:43.401Z,8.50
2019-03-24T14:23:08.223Z,8.50
2019-03-24T14:25:36.654Z,8.40
2019-03-24T14:28:05.201Z,8.50
2019-03-24T14:30:44.651Z,8.60
2019-03-24T14:33:13.783Z,8.60
2019-03-24T14:35:42.279Z,8.50
2019-03-24T14:38:10.754Z,8.40
2019-03-24T14:40:39.190Z,8.40
2019-03-24T14:43:07.679Z,8.30
2019-03-24T14:45:36.105Z,8.30
2019-03-24T14:48:04.633Z,8.40
2019-03-24T14:50:33.095Z,8.30
2019-03-24T14:53:01.718Z,8.20
2019-03-24T14:55:30.242Z,8.10
2019-03-24T14:57:58.717Z,8.10
2019-03-24T15:00:38.773Z,8.10
2019-03-24T15:03:07.406Z,8.10
2019-03-24T15:05:36.015Z,8.10
2019-03-24T15:08:05.329Z,8.10
2019-03-24T15:10:34.244Z,8.00
2019-03-24T15:13:02.765Z,7.90
2019-03-24T15:15:31.254Z,7.80
2019-03-24T15:17:59.793Z,7.80
2019-03-24T15:20:28.343Z,7.80
2019-03-24T15:22:56.853Z,7.80
2019-03-24T15:25:25.430Z,7.80
2019-03-24T15:27:53.858Z,7.70
2019-03-24T15:30:22.385Z,7.70
2019-03-24T15:32:53.365Z,7.80
2019-03-24T15:35:21.218Z,7.80
2019-03-24T15:37:49.650Z,7.70
2019-03-24T15:40:18.189Z,7.70
2019-03-24T15:42:46.742Z,7.60
2019-03-24T15:45:15.489Z,7.50
2019-03-24T15:47:43.979Z,7.50
2019-03-24T15:50:12.614Z,7.40
2019-03-24T15:52:41.151Z,7.50
2019-03-24T15:55:09.818Z,7.50
2019-03-24T15:57:38.292Z,7.60
2019-03-24T16:00:09.640Z,7.60
2019-03-24T16:02:38.186Z,7.60
2019-03-24T16:05:06.978Z,7.40
2019-03-24T16:07:35.525Z,7.50
2019-03-24T16:10:06.413Z,7.50
2019-03-24T16:12:34.858Z,7.50
2019-03-24T16:15:04.659Z,7.50
2019-03-24T16:17:33.129Z,7.60
2019-03-24T16:20:01.554Z,7.60
2019-03-24T16:22:30.041Z,7.60
2019-03-24T16:24:58.505Z,7.50
2019-03-24T16:27:26.949Z,7.50
2019-03-24T16:29:55.429Z,7.50
2019-03-24T16:32:23.857Z,7.40
2019-03-24T16:34:52.313Z,7.40
2019-03-24T16:37:20.785Z,7.50
2019-03-24T16:39:49.266Z,7.40
2019-03-24T16:42:17.715Z,7.40
2019-03-24T16:44:46.169Z,7.30
2019-03-24T16:47:14.632Z,7.30
2019-03-24T16:49:43.086Z,7.30
2019-03-24T16:52:11.611Z,7.30
2019-03-24T16:54:40.099Z,7.30
2019-03-24T16:57:08.566Z,7.30
2019-03-24T16:59:37.078Z,7.30
2019-03-24T17:02:05.564Z,7.30
2019-03-24T17:04:34.015Z,7.30
2019-03-24T17:07:02.506Z,7.30
2019-03-24T17:09:30.958Z,7.30
2019-03-24T17:11:59.386Z,7.20
2019-03-24T17:14:27.902Z,7.30
2019-03-24T17:16:56.451Z,7.20
2019-03-24T17:19:24.974Z,7.20
2019-03-24T17:21:53.444Z,7.20
2019-03-24T17:24:21.892Z,7.20
2019-03-24T17:26:50.402Z,7.20
2019-03-24T17:29:18.878Z,7.20
2019-03-24T17:31:47.393Z,7.10
2019-03-24T17:34:15.849Z,7.20
2019-03-24T17:36:44.269Z,7.10
2019-03-24T17:39:12.741Z,7.10
2019-03-24T17:41:41.226Z,7.10
2019-03-24T17:44:09.650Z,7.10
2019-03-24T17:46:38.077Z,7.00
2019-03-24T17:49:06.534Z,7.00
2019-03-24T17:51:34.970Z,7.00
2019-03-24T17:54:03.430Z,7.00
2019-03-24T17:56:31.876Z,6.90
2019-03-24T17:59:02.426Z,6.90
2019-03-24T18:01:30.873Z,6.90
2019-03-24T18:04:01.318Z,7.00
2019-03-24T18:06:29.769Z,7.00
2019-03-24T18:08:58.221Z,6.90
2019-03-24T18:11:26.650Z,6.90
2019-03-24T18:13:55.112Z,6.90
2019-03-24T18:16:23.576Z,6.90
2019-03-24T18:18:52.100Z,6.80
2019-03-24T18:21:20.527Z,6.80
2019-03-24T18:23:49.017Z,6.80
2019-03-24T18:26:17.448Z,6.70
2019-03-24T18:28:45.911Z,6.70
2019-03-24T18:31:14.402Z,6.70
2019-03-24T18:33:42.909Z,6.60
2019-03-24T18:36:11.351Z,6.60
2019-03-24T18:38:39.834Z,6.60
2019-03-24T18:41:08.325Z,6.60
2019-03-24T18:43:36.822Z,6.60
2019-03-24T18:46:05.277Z,6.60
2019-03-24T18:48:33.833Z,6.60
2019-03-24T18:51:02.289Z,6.50
2019-03-24T18:53:30.722Z,6.60
2019-03-24T18:56:01.260Z,6.50
2019-03-24T18:58:31.944Z,6.50
2019-03-24T19:01:03.575Z,6.50
2019-03-24T19:03:32.001Z,6.50
2019-03-24T19:06:00.769Z,6.50
2019-03-24T19:08:29.247Z,6.50
2019-03-24T19:10:57.706Z,6.50
2019-03-24T19:13:26.137Z,6.50
2019-03-24T19:15:54.708Z,6.50
2019-03-24T19:18:23.161Z,6.50
2019-03-24T19:20:51.621Z,6.50
2019-03-24T19:23:20.073Z,6.40
2019-03-24T19:25:48.542Z,6.50
2019-03-24T19:28:16.987Z,6.40
2019-03-24T19:30:45.452Z,6.40
2019-03-24T19:33:13.877Z,6.30
2019-03-24T19:35:42.516Z,6.20
2019-03-24T19:38:10.975Z,6.20
2019-03-24T19:40:39.435Z,6.20
2019-03-24T19:43:07.960Z,6.20
2019-03-24T19:45:36.389Z,6.20
2019-03-24T19:48:05.009Z,6.10
2019-03-24T19:50:33.438Z,6.10
2019-03-24T19:53:01.941Z,6.10
2019-03-24T19:55:30.421Z,6.10
2019-03-24T19:57:58.849Z,6.10
2019-03-24T20:00:27.334Z,6.10
2019-03-24T20:02:55.779Z,6.10
2019-03-24T20:05:24.202Z,6.10
2019-03-24T20:07:52.681Z,6.10
2019-03-24T20:10:21.235Z,6.10
2019-03-24T20:12:49.716Z,6.10
2019-03-24T20:15:18.461Z,6.10
2019-03-24T20:17:46.887Z,6.00
2019-03-24T20:20:15.448Z,6.00
2019-03-24T20:22:43.870Z,6.00
2019-03-24T20:25:12.387Z,6.00
2019-03-24T20:27:40.843Z,6.00
2019-03-24T20:30:13.113Z,6.00
2019-03-24T20:32:41.689Z,5.90
2019-03-24T20:35:10.619Z,5.80
2019-03-24T20:37:39.074Z,5.70
2019-03-24T20:40:07.890Z,5.50
2019-03-24T20:42:36.350Z,5.40
2019-03-24T20:45:07.540Z,5.30
2019-03-24T20:47:36.067Z,5.20
2019-03-24T20:50:07.713Z,5.10
2019-03-24T20:52:36.196Z,5.00
2019-03-24T20:55:07.330Z,4.90
2019-03-24T20:57:36.021Z,4.80
2019-03-24T21:00:07.186Z,4.60
2019-03-24T21:02:35.665Z,4.30
2019-03-24T21:05:06.058Z,4.20
2019-03-24T21:07:34.506Z,4.00
2019-03-24T21:10:03.406Z,3.90
2019-03-24T21:12:31.866Z,3.80
2019-03-24T21:15:00.916Z,3.70
2019-03-24T21:17:29.406Z,3.60
2019-03-24T21:19:57.946Z,3.60
2019-03-24T21:22:26.500Z,3.40
2019-03-24T21:24:54.969Z,3.40
2019-03-24T21:27:23.526Z,3.40
2019-03-24T21:29:51.958Z,3.40
2019-03-24T21:32:20.417Z,3.50
2019-03-24T21:34:48.945Z,3.50
2019-03-24T21:37:17.401Z,3.60
2019-03-24T21:39:45.862Z,3.60
2019-03-24T21:42:14.291Z,3.70
2019-03-24T21:44:42.775Z,3.70
2019-03-24T21:47:11.229Z,3.80
2019-03-24T21:49:39.701Z,3.80
2019-03-24T21:52:08.153Z,3.80
2019-03-24T21:54:36.586Z,3.70
2019-03-24T21:57:05.050Z,3.70
2019-03-24T21:59:33.511Z,3.60
2019-03-24T22:02:02.017Z,3.70
2019-03-24T22:04:30.478Z,3.70
2019-03-24T22:07:00.843Z,3.60
2019-03-24T22:09:29.298Z,3.60
2019-03-24T22:11:57.761Z,3.50
2019-03-24T22:14:26.258Z,3.40
2019-03-24T22:16:54.758Z,3.40
2019-03-24T22:19:23.245Z,3.30
2019-03-24T22:21:51.719Z,3.30
2019-03-24T22:24:20.174Z,3.30
2019-03-24T22:26:48.665Z,3.30
2019-03-24T22:29:17.229Z,3.40
2019-03-24T22:31:46.078Z,3.50
2019-03-24T22:34:14.533Z,3.50
2019-03-24T22:36:43.034Z,3.50
2019-03-24T22:39:11.457Z,3.40
2019-03-24T22:41:39.947Z,3.20
2019-03-24T22:44:08.394Z,3.10
2019-03-24T22:46:36.885Z,3.00
2019-03-24T22:49:05.415Z,3.10
2019-03-24T22:51:33.854Z,3.10
2019-03-24T22:54:03.513Z,3.10
2019-03-24T22:56:32.137Z,3.00
2019-03-24T22:59:00.639Z,3.10
2019-03-24T23:01:29.073Z,3.00
2019-03-24T23:03:57.575Z,3.10
2019-03-24T23:06:26.024Z,3.10
2019-03-24T23:08:54.460Z,3.10
2019-03-24T23:11:22.937Z,3.10
2019-03-24T23:13:51.418Z,3.00
2019-03-24T23:16:19.871Z,2.90
2019-03-24T23:18:48.299Z,2.90
2019-03-24T23:21:16.750Z,2.80
2019-03-24T23:23:45.258Z,2.70
2019-03-24T23:26:13.737Z,2.70
2019-03-24T23:28:42.187Z,2.80
2019-03-24T23:31:10.661Z,2.80
2019-03-24T23:33:39.090Z,2.60
2019-03-24T23:36:07.526Z,2.50
2019-03-24T23:38:35.982Z,2.50
2019-03-24T23:41:04.513Z,2.40
2019-03-24T23:43:33.072Z,2.40
2019-03-24T23:46:03.242Z,2.50
2019-03-24T23:48:31.707Z,2.50
2019-03-24T23:51:00.229Z,2.60
2019-03-24T23:53:28.662Z,2.70
2019-03-24T23:55:57.091Z,2.70
2019-03-24T23:58:35.873Z,2.80
